Hurricane Mills, Tennessee
Current Conditions -  °F | °C
As of 3:35 PM on Saturday 20 Dec 2014 (Local Time) from KPVE Reporting Station
Clear Clear  
Wind Chill: 41°   Ceiling: Unl
Heat Index: 45°   Visibility: 10mi
Dew Point: 28°   Wind: 6mph
Humidity: 53%   Direction: 50°NE
Pressure: 30.22"   Gusts: NA
Location:  35.97°N, 87.78°W
Report Text: KPVE 202135Z AUTO 05005KT 10SM CLR 07/M02 A3022 RMK
Loading
Personal Weather Stations






























Interactive Weather Map New forecast layout! Learn more

10-Day Weather Forecast

Advertisements
Track Severe Weather on mobile